createdAt,value
2022-08-19T00:01:43.074Z,17.20
2022-08-19T00:04:17.427Z,17.20
2022-08-19T00:06:49.299Z,17.30
2022-08-19T00:09:22.758Z,17.20
2022-08-19T00:11:56.547Z,17.20
2022-08-19T00:14:30.633Z,17.20
2022-08-19T00:17:03.837Z,17.20
2022-08-19T00:19:35.877Z,17.30
2022-08-19T00:22:09.677Z,17.30
2022-08-19T00:24:42.376Z,17.30
2022-08-19T00:27:26.533Z,17.30
2022-08-19T00:29:52.469Z,17.30
2022-08-19T00:32:22.508Z,17.20
2022-08-19T00:34:55.311Z,17.20
2022-08-19T00:37:27.765Z,17.10
2022-08-19T00:39:59.172Z,17.10
2022-08-19T00:42:30.576Z,17.10
2022-08-19T00:45:01.959Z,17.10
2022-08-19T00:47:33.476Z,17.10
2022-08-19T00:50:05.405Z,17.10
2022-08-19T00:52:39.645Z,17.00
2022-08-19T00:55:12.994Z,17.10
2022-08-19T00:57:47.288Z,17.10
2022-08-19T01:00:20.910Z,17.10
2022-08-19T01:02:52.588Z,17.00
2022-08-19T01:05:28.540Z,17.10
2022-08-19T01:08:02.388Z,17.10
2022-08-19T01:10:37.007Z,17.10
2022-08-19T01:13:08.647Z,17.20
2022-08-19T01:15:43.936Z,17.30
2022-08-19T01:18:18.465Z,17.20
2022-08-19T01:20:55.927Z,17.20
2022-08-19T01:23:29.032Z,17.20
2022-08-19T01:26:00.398Z,17.20
2022-08-19T01:28:39.690Z,17.20
2022-08-19T01:31:08.024Z,17.10
2022-08-19T01:33:38.293Z,17.10
2022-08-19T01:36:13.577Z,17.00
2022-08-19T01:38:47.242Z,17.00
2022-08-19T01:41:20.406Z,17.00
2022-08-19T01:44:12.367Z,17.00
2022-08-19T01:46:26.198Z,17.00
2022-08-19T01:48:57.742Z,17.00
2022-08-19T01:51:29.277Z,17.10
2022-08-19T01:54:02.856Z,17.10
2022-08-19T01:56:34.329Z,17.10
2022-08-19T01:59:08.745Z,17.00
2022-08-19T02:01:40.214Z,17.00
2022-08-19T02:04:11.535Z,17.00
2022-08-19T02:06:42.894Z,17.00
2022-08-19T02:09:14.289Z,17.00
2022-08-19T02:11:45.789Z,17.00
2022-08-19T02:14:17.080Z,17.00
2022-08-19T02:16:48.849Z,17.00
2022-08-19T02:19:20.306Z,16.90
2022-08-19T02:21:51.617Z,16.90
2022-08-19T02:24:22.932Z,16.90
2022-08-19T02:26:54.786Z,17.00
2022-08-19T02:29:26.245Z,17.00
2022-08-19T02:31:58.309Z,17.00
2022-08-19T02:34:30.200Z,17.00
2022-08-19T02:37:03.878Z,17.00
2022-08-19T02:39:35.508Z,17.00
2022-08-19T02:42:07.969Z,17.00
2022-08-19T02:44:39.712Z,17.00
2022-08-19T02:47:12.095Z,16.90
2022-08-19T02:49:43.179Z,16.90
2022-08-19T02:52:15.461Z,16.90
2022-08-19T02:54:46.989Z,17.00
2022-08-19T02:57:18.497Z,17.00
2022-08-19T02:59:50.681Z,17.00
2022-08-19T03:02:21.947Z,16.90
2022-08-19T03:04:53.254Z,16.90
2022-08-19T03:07:24.732Z,16.90
2022-08-19T03:09:56.117Z,16.90
2022-08-19T03:12:27.700Z,16.90
2022-08-19T03:14:59.060Z,16.90
2022-08-19T03:17:30.447Z,16.80
2022-08-19T03:20:02.172Z,16.80
2022-08-19T03:22:33.575Z,16.80
2022-08-19T03:25:06.069Z,16.80
2022-08-19T03:27:37.467Z,16.80
2022-08-19T03:30:11.941Z,16.90
2022-08-19T03:32:51.459Z,16.90
2022-08-19T03:35:17.878Z,16.80
2022-08-19T03:37:49.431Z,16.80
2022-08-19T03:40:21.030Z,16.90
2022-08-19T03:42:52.558Z,16.80
2022-08-19T03:45:23.916Z,16.80
2022-08-19T03:47:55.193Z,16.80
2022-08-19T03:50:28.158Z,16.80
2022-08-19T03:52:59.460Z,16.80
2022-08-19T03:55:31.301Z,16.80
2022-08-19T03:58:02.730Z,16.80
2022-08-19T04:00:34.345Z,16.80
2022-08-19T04:03:05.946Z,16.80
2022-08-19T04:05:38.534Z,16.80
2022-08-19T04:08:13.804Z,16.80
2022-08-19T04:10:43.302Z,16.80
2022-08-19T04:13:15.709Z,16.80
2022-08-19T04:15:48.450Z,16.80
2022-08-19T04:18:19.828Z,16.80
2022-08-19T04:20:51.458Z,16.80
2022-08-19T04:23:23.188Z,16.90
2022-08-19T04:25:54.912Z,16.90
2022-08-19T04:28:27.044Z,17.00
2022-08-19T04:30:59.494Z,16.90
2022-08-19T04:33:30.843Z,16.90
2022-08-19T04:36:02.340Z,16.90
2022-08-19T04:38:33.761Z,16.80
2022-08-19T04:41:24.295Z,16.80
2022-08-19T04:43:55.683Z,16.80
2022-08-19T04:46:39.146Z,16.80
2022-08-19T04:49:00.950Z,16.80
2022-08-19T04:51:34.686Z,16.80
2022-08-19T04:54:06.544Z,16.70
2022-08-19T04:56:38.085Z,16.70
2022-08-19T04:59:10.141Z,16.70
2022-08-19T05:01:41.587Z,16.80
2022-08-19T05:04:14.042Z,16.80
2022-08-19T05:06:45.496Z,16.80
2022-08-19T05:09:17.922Z,16.80
2022-08-19T05:11:50.774Z,16.80
2022-08-19T05:14:22.540Z,16.80
2022-08-19T05:17:11.458Z,16.80
2022-08-19T05:19:44.668Z,16.80
2022-08-19T05:22:35.815Z,16.80
2022-08-19T05:25:13.499Z,16.80
2022-08-19T05:27:44.800Z,16.80
2022-08-19T05:30:17.334Z,16.70
2022-08-19T05:32:48.799Z,16.70
2022-08-19T05:35:20.245Z,16.70
2022-08-19T05:37:54.873Z,16.70
2022-08-19T05:40:24.887Z,16.70
2022-08-19T05:42:58.003Z,16.70
2022-08-19T05:45:29.490Z,16.70
2022-08-19T05:48:01.044Z,16.60
2022-08-19T05:50:32.533Z,16.60
2022-08-19T05:53:03.974Z,16.60
2022-08-19T05:55:38.009Z,16.60
2022-08-19T05:58:09.513Z,16.60
2022-08-19T06:00:41.661Z,16.60
2022-08-19T06:03:13.285Z,16.60
2022-08-19T06:05:51.597Z,16.60
2022-08-19T06:08:19.678Z,16.60
2022-08-19T06:10:51.010Z,16.60
2022-08-19T06:13:23.666Z,16.70
2022-08-19T06:15:55.295Z,16.70
2022-08-19T06:18:26.711Z,16.70
2022-08-19T06:20:57.905Z,16.70
2022-08-19T06:23:29.744Z,16.70
2022-08-19T06:26:01.210Z,16.60
2022-08-19T06:28:33.908Z,16.60
2022-08-19T06:31:10.144Z,16.60
2022-08-19T06:33:41.783Z,16.60
2022-08-19T06:36:21.121Z,16.60
2022-08-19T06:38:53.800Z,16.60
2022-08-19T06:41:26.537Z,16.70
2022-08-19T06:44:02.633Z,16.70
2022-08-19T06:46:35.504Z,16.80
2022-08-19T06:49:09.420Z,16.70
2022-08-19T06:51:43.728Z,16.70
2022-08-19T06:54:18.960Z,16.70
2022-08-19T06:56:49.084Z,16.70
2022-08-19T06:59:22.149Z,16.70
2022-08-19T07:01:56.119Z,16.70
2022-08-19T07:04:31.164Z,16.70
2022-08-19T07:07:12.464Z,16.60
2022-08-19T07:09:41.464Z,16.60
2022-08-19T07:12:16.317Z,16.60
2022-08-19T07:14:47.978Z,16.60
2022-08-19T07:17:21.032Z,16.60
2022-08-19T07:19:54.114Z,16.60
2022-08-19T07:22:26.433Z,16.60
2022-08-19T07:24:57.842Z,16.60
2022-08-19T07:27:29.319Z,16.60
2022-08-19T07:30:12.375Z,16.70
2022-08-19T07:32:44.002Z,16.70
2022-08-19T07:35:15.474Z,16.70
2022-08-19T07:37:46.955Z,16.70
2022-08-19T07:40:18.697Z,16.70
2022-08-19T07:42:50.108Z,16.80
2022-08-19T07:45:21.676Z,16.80
2022-08-19T07:47:53.806Z,16.80
2022-08-19T07:50:25.371Z,17.00
2022-08-19T07:52:57.530Z,17.00
2022-08-19T07:55:42.352Z,17.10
2022-08-19T07:58:03.258Z,17.20
2022-08-19T08:00:37.234Z,17.20
2022-08-19T08:03:10.095Z,17.20
2022-08-19T08:05:59.052Z,17.20
2022-08-19T08:08:48.585Z,17.20
2022-08-19T08:11:23.942Z,17.30
2022-08-19T08:14:01.042Z,17.20
2022-08-19T08:16:30.282Z,17.20
2022-08-19T08:19:01.886Z,17.30
2022-08-19T08:21:33.533Z,17.30
2022-08-19T08:24:05.884Z,17.20
2022-08-19T08:26:37.311Z,17.20
2022-08-19T08:29:12.162Z,17.30
2022-08-19T08:31:45.368Z,17.30
2022-08-19T08:34:17.085Z,17.30
2022-08-19T08:36:49.069Z,17.20
2022-08-19T08:39:22.477Z,17.20
2022-08-19T08:41:57.583Z,17.30
2022-08-19T08:44:32.723Z,17.30
2022-08-19T08:47:08.623Z,17.20
2022-08-19T08:49:45.558Z,17.20
2022-08-19T08:52:21.270Z,17.20
2022-08-19T08:54:55.971Z,17.20
2022-08-19T08:57:37.055Z,17.20
2022-08-19T09:00:15.403Z,17.20
2022-08-19T09:02:43.351Z,17.20
2022-08-19T09:05:16.471Z,17.20
2022-08-19T09:07:52.045Z,17.20
2022-08-19T09:10:26.481Z,17.20
2022-08-19T09:13:01.567Z,17.20
2022-08-19T09:15:36.803Z,17.20
2022-08-19T09:18:15.359Z,17.10
2022-08-19T09:20:43.333Z,17.10
2022-08-19T09:23:14.814Z,17.10
2022-08-19T09:25:46.311Z,17.20
2022-08-19T09:28:22.647Z,17.10
2022-08-19T09:30:52.959Z,17.10
2022-08-19T09:33:24.594Z,17.10
2022-08-19T09:36:08.371Z,17.10
2022-08-19T09:38:43.607Z,17.10
2022-08-19T09:41:18.144Z,17.20
2022-08-19T09:43:53.386Z,17.20
2022-08-19T09:46:27.181Z,17.20
2022-08-19T09:49:02.944Z,17.20
2022-08-19T09:51:35.041Z,17.20
2022-08-19T09:54:06.874Z,17.20
2022-08-19T09:56:40.049Z,17.20
2022-08-19T09:59:13.685Z,17.20
2022-08-19T10:01:45.143Z,17.30
2022-08-19T10:04:20.027Z,17.30
2022-08-19T10:06:53.813Z,17.30
2022-08-19T10:09:26.320Z,17.30
2022-08-19T10:12:00.972Z,17.30
2022-08-19T10:14:35.010Z,17.30
2022-08-19T10:17:19.173Z,17.40
2022-08-19T10:19:39.893Z,17.40
2022-08-19T10:22:13.416Z,17.50
2022-08-19T10:24:44.797Z,17.60
2022-08-19T10:27:16.140Z,17.60
2022-08-19T10:29:48.948Z,17.70
2022-08-19T10:32:34.096Z,17.80
2022-08-19T10:34:57.180Z,17.90
2022-08-19T10:37:29.033Z,17.90
2022-08-19T10:40:03.184Z,18.00
2022-08-19T10:42:35.430Z,18.00
2022-08-19T10:45:10.876Z,18.00
2022-08-19T10:47:42.163Z,18.10
2022-08-19T10:50:32.228Z,18.10
2022-08-19T10:53:08.088Z,18.10
2022-08-19T10:55:56.891Z,18.10
2022-08-19T10:58:28.392Z,18.10
2022-08-19T11:01:01.399Z,18.10
2022-08-19T11:03:32.878Z,18.10
2022-08-19T11:06:06.396Z,18.10
2022-08-19T11:08:38.919Z,18.10
2022-08-19T11:11:10.941Z,18.10
2022-08-19T11:13:45.008Z,18.00
2022-08-19T11:16:18.500Z,18.00
2022-08-19T11:18:52.230Z,17.90
2022-08-19T11:21:25.979Z,17.90
2022-08-19T11:24:00.211Z,17.90
2022-08-19T11:26:32.819Z,17.90
2022-08-19T11:29:05.383Z,17.90
2022-08-19T11:31:39.612Z,17.90
2022-08-19T11:34:14.404Z,17.80
2022-08-19T11:36:48.684Z,17.80
2022-08-19T11:39:22.194Z,17.80
2022-08-19T11:41:53.838Z,17.90
2022-08-19T11:44:26.372Z,17.90
2022-08-19T11:46:58.747Z,17.80
2022-08-19T11:49:31.762Z,17.80
2022-08-19T11:52:03.057Z,17.70
2022-08-19T11:54:34.506Z,17.70
2022-08-19T11:57:06.534Z,17.60
2022-08-19T11:59:37.945Z,17.50
2022-08-19T12:02:09.333Z,17.50
2022-08-19T12:04:40.722Z,17.50
2022-08-19T12:07:12.105Z,17.50
2022-08-19T12:09:43.639Z,17.40
2022-08-19T12:12:16.897Z,17.50
2022-08-19T12:14:48.280Z,17.50
2022-08-19T12:17:19.697Z,17.50
2022-08-19T12:19:51.097Z,17.60
2022-08-19T12:22:22.700Z,17.50
2022-08-19T12:24:54.661Z,17.60
2022-08-19T12:27:39.900Z,17.60
2022-08-19T12:29:59.226Z,17.60
2022-08-19T12:32:30.713Z,17.60
2022-08-19T12:35:02.693Z,17.60
2022-08-19T12:37:34.168Z,17.60
2022-08-19T12:40:07.136Z,17.60
2022-08-19T12:42:38.942Z,17.60
2022-08-19T12:45:12.013Z,17.60
2022-08-19T12:47:46.126Z,17.60
2022-08-19T12:50:17.978Z,17.50
2022-08-19T12:52:49.988Z,17.50
2022-08-19T12:55:21.560Z,17.40
2022-08-19T12:57:53.177Z,17.40
2022-08-19T13:00:25.033Z,17.40
2022-08-19T13:02:56.568Z,17.40
2022-08-19T13:05:30.820Z,17.40
2022-08-19T13:08:02.515Z,17.40
2022-08-19T13:10:36.624Z,17.30
2022-08-19T13:13:10.764Z,17.30
2022-08-19T13:15:45.484Z,17.30
2022-08-19T13:18:16.964Z,17.30
2022-08-19T13:20:52.999Z,17.30
2022-08-19T13:23:22.305Z,17.30
2022-08-19T13:26:00.255Z,17.30
2022-08-19T13:28:34.164Z,17.40
2022-08-19T13:31:23.361Z,17.50
2022-08-19T13:33:54.839Z,17.50
2022-08-19T13:36:26.149Z,17.60
2022-08-19T13:38:57.990Z,17.60
2022-08-19T13:41:31.462Z,17.60
2022-08-19T13:44:03.295Z,17.70
2022-08-19T13:46:34.790Z,17.70
2022-08-19T13:49:06.122Z,17.70
2022-08-19T13:51:37.451Z,17.70
2022-08-19T13:54:09.776Z,17.70
2022-08-19T13:56:44.799Z,17.80
2022-08-19T13:59:16.313Z,17.80
2022-08-19T14:01:47.625Z,17.90
2022-08-19T14:04:19.185Z,17.90
2022-08-19T14:06:50.566Z,18.00
2022-08-19T14:09:22.037Z,18.10
2022-08-19T14:11:53.685Z,18.20
2022-08-19T14:14:25.147Z,18.20
2022-08-19T14:16:56.438Z,18.30
2022-08-19T14:19:30.114Z,18.40
2022-08-19T14:22:01.180Z,18.40
2022-08-19T14:24:32.713Z,18.30
2022-08-19T14:27:04.315Z,18.20
2022-08-19T14:29:37.017Z,18.30
2022-08-19T14:32:11.497Z,18.30
2022-08-19T14:34:42.057Z,18.40
2022-08-19T14:37:14.974Z,18.40
2022-08-19T14:39:46.862Z,18.50
2022-08-19T14:42:19.434Z,18.60
2022-08-19T14:44:50.773Z,18.70
2022-08-19T14:47:22.072Z,18.80
2022-08-19T14:49:54.642Z,18.90
2022-08-19T14:52:26.094Z,18.90
2022-08-19T14:54:57.490Z,19.00
2022-08-19T14:57:28.760Z,18.80
2022-08-19T15:00:00.983Z,18.80
2022-08-19T15:02:34.759Z,18.70
2022-08-19T15:05:06.382Z,18.70
2022-08-19T15:07:37.977Z,18.70
2022-08-19T15:10:13.046Z,18.70
2022-08-19T15:12:46.637Z,18.70
2022-08-19T15:15:18.694Z,18.70
2022-08-19T15:17:50.120Z,18.70
2022-08-19T15:20:23.853Z,18.80
2022-08-19T15:22:55.414Z,18.60
2022-08-19T15:25:27.403Z,18.50
2022-08-19T15:28:00.595Z,18.50
2022-08-19T15:30:33.386Z,18.50
2022-08-19T15:33:04.998Z,18.50
2022-08-19T15:35:36.538Z,18.50
2022-08-19T15:38:08.699Z,18.50
2022-08-19T15:40:41.424Z,18.40
2022-08-19T15:43:12.914Z,18.40
2022-08-19T15:45:49.288Z,18.40
2022-08-19T15:48:18.586Z,18.30
2022-08-19T15:50:50.879Z,18.30
2022-08-19T15:53:22.436Z,18.30
2022-08-19T15:55:53.861Z,18.30
2022-08-19T15:58:43.174Z,18.20
2022-08-19T16:01:48.635Z,18.20
2022-08-19T16:07:00.939Z,18.30
2022-08-19T16:09:34.819Z,18.30
2022-08-19T16:12:08.829Z,18.30
2022-08-19T16:14:40.253Z,18.20
2022-08-19T16:17:12.649Z,18.20
2022-08-19T16:19:43.973Z,18.10
2022-08-19T16:22:15.636Z,18.10
2022-08-19T16:24:47.484Z,18.00
2022-08-19T16:27:19.010Z,18.00
2022-08-19T16:29:50.481Z,18.00
2022-08-19T16:32:21.985Z,18.10
2022-08-19T16:34:53.586Z,18.00
2022-08-19T16:37:25.699Z,18.00
2022-08-19T16:39:57.223Z,18.00
2022-08-19T16:42:28.731Z,18.00
2022-08-19T16:45:00.096Z,17.90
2022-08-19T16:47:31.510Z,17.90
2022-08-19T16:50:02.907Z,17.90
2022-08-19T16:52:35.038Z,17.80
2022-08-19T16:55:08.516Z,17.80
2022-08-19T16:57:39.798Z,17.80
2022-08-19T17:00:13.890Z,17.70
2022-08-19T17:02:45.434Z,17.70
2022-08-19T17:05:16.855Z,17.70
2022-08-19T17:07:48.284Z,17.60
2022-08-19T17:10:19.633Z,17.60
2022-08-19T17:12:52.688Z,17.60
2022-08-19T17:15:24.807Z,17.50
2022-08-19T17:18:00.819Z,17.50
2022-08-19T17:20:32.867Z,17.50
2022-08-19T17:23:06.594Z,17.50
2022-08-19T17:25:38.972Z,17.50
2022-08-19T17:28:11.524Z,17.50
2022-08-19T17:30:43.461Z,17.50
2022-08-19T17:33:15.337Z,17.50
2022-08-19T17:35:47.931Z,17.50
2022-08-19T17:38:21.973Z,17.50
2022-08-19T17:40:53.608Z,17.50
2022-08-19T17:43:32.403Z,17.50
2022-08-19T17:45:59.130Z,17.40
2022-08-19T17:48:30.841Z,17.40
2022-08-19T17:51:02.240Z,17.40
2022-08-19T17:53:33.894Z,17.40
2022-08-19T17:56:06.062Z,17.40
2022-08-19T17:58:39.115Z,17.50
2022-08-19T18:01:13.625Z,17.50
2022-08-19T18:03:45.432Z,17.40
2022-08-19T18:06:18.020Z,17.50
2022-08-19T18:08:49.694Z,17.50
2022-08-19T18:11:21.105Z,17.50
2022-08-19T18:13:52.528Z,17.50
2022-08-19T18:16:24.546Z,17.50
2022-08-19T18:18:55.972Z,17.50
2022-08-19T18:21:29.022Z,17.50
2022-08-19T18:24:01.678Z,17.50
2022-08-19T18:26:33.738Z,17.50
2022-08-19T18:29:05.312Z,17.50
2022-08-19T18:31:38.610Z,17.50
2022-08-19T18:34:10.151Z,17.50
2022-08-19T18:36:53.415Z,17.50
2022-08-19T18:39:33.844Z,17.50
2022-08-19T18:42:25.351Z,17.50
2022-08-19T18:45:14.339Z,17.50
2022-08-19T18:48:03.202Z,17.40
2022-08-19T18:50:34.598Z,17.40
2022-08-19T18:53:06.324Z,17.40
2022-08-19T18:55:38.990Z,17.40
2022-08-19T18:58:11.015Z,17.40
2022-08-19T19:00:43.872Z,17.40
2022-08-19T19:03:15.146Z,17.30
2022-08-19T19:05:48.491Z,17.30
2022-08-19T19:08:20.114Z,17.30
2022-08-19T19:10:53.194Z,17.30
2022-08-19T19:13:24.759Z,17.20
2022-08-19T19:15:56.862Z,17.20
2022-08-19T19:18:28.349Z,17.20
2022-08-19T19:21:00.025Z,17.20
2022-08-19T19:23:31.480Z,17.20
2022-08-19T19:26:02.989Z,17.10
2022-08-19T19:28:34.573Z,17.10
2022-08-19T19:31:06.168Z,17.10
2022-08-19T19:33:37.570Z,17.10
2022-08-19T19:36:09.747Z,17.10
2022-08-19T19:38:47.725Z,17.10
2022-08-19T19:41:19.709Z,17.00
2022-08-19T19:44:04.493Z,17.00
2022-08-19T19:46:25.370Z,17.00
2022-08-19T19:48:59.956Z,17.00
2022-08-19T19:51:31.068Z,17.00
2022-08-19T19:54:04.089Z,17.10
2022-08-19T19:56:36.062Z,17.10
2022-08-19T19:59:07.604Z,17.10
2022-08-19T20:01:40.618Z,17.10
2022-08-19T20:04:13.709Z,17.10
2022-08-19T20:06:46.228Z,17.10
2022-08-19T20:09:19.906Z,17.10
2022-08-19T20:11:53.975Z,17.10
2022-08-19T20:14:27.833Z,17.10
2022-08-19T20:17:00.214Z,17.10
2022-08-19T20:19:35.791Z,17.10
2022-08-19T20:22:07.781Z,17.00
2022-08-19T20:24:40.843Z,17.00
2022-08-19T20:27:12.219Z,16.90
2022-08-19T20:29:44.462Z,16.80
2022-08-19T20:32:16.435Z,16.70
2022-08-19T20:34:49.726Z,16.60
2022-08-19T20:37:21.255Z,16.60
2022-08-19T20:39:52.724Z,16.60
2022-08-19T20:42:25.678Z,16.60
2022-08-19T20:44:58.008Z,16.60
2022-08-19T20:47:30.939Z,16.60
2022-08-19T20:50:02.504Z,16.50
2022-08-19T20:52:33.985Z,16.50
2022-08-19T20:55:06.147Z,16.50
2022-08-19T20:57:37.958Z,16.50
2022-08-19T21:00:12.814Z,16.60
2022-08-19T21:02:44.200Z,16.60
2022-08-19T21:05:15.589Z,16.60
2022-08-19T21:07:47.114Z,16.60
2022-08-19T21:10:18.598Z,16.60
2022-08-19T21:12:49.982Z,16.60
2022-08-19T21:15:21.565Z,16.60
2022-08-19T21:17:53.335Z,16.60
2022-08-19T21:20:25.240Z,16.60
2022-08-19T21:22:56.790Z,16.60
2022-08-19T21:25:29.082Z,16.60
2022-08-19T21:28:00.487Z,16.60
2022-08-19T21:30:31.990Z,16.50
2022-08-19T21:33:04.789Z,16.50
2022-08-19T21:35:36.892Z,16.50
2022-08-19T21:38:08.416Z,16.50
2022-08-19T21:40:40.539Z,16.50
2022-08-19T21:43:11.941Z,16.50
2022-08-19T21:45:43.630Z,16.50
2022-08-19T21:48:15.081Z,16.50
2022-08-19T21:50:48.345Z,16.50
2022-08-19T21:53:22.941Z,16.50
2022-08-19T21:55:53.969Z,16.50
2022-08-19T21:58:30.442Z,16.50
2022-08-19T22:00:58.514Z,16.50
2022-08-19T22:03:30.842Z,16.50
2022-08-19T22:06:02.694Z,16.50
2022-08-19T22:08:34.370Z,16.50
2022-08-19T22:11:06.200Z,16.50
2022-08-19T22:13:39.913Z,16.50
2022-08-19T22:16:14.344Z,16.50
2022-08-19T22:18:45.809Z,16.50
2022-08-19T22:21:20.219Z,16.50
2022-08-19T22:23:50.705Z,16.50
2022-08-19T22:26:22.197Z,16.40
2022-08-19T22:28:53.614Z,16.40
2022-08-19T22:31:25.129Z,16.50
2022-08-19T22:33:57.817Z,16.40
2022-08-19T22:36:30.892Z,16.50
2022-08-19T22:39:04.624Z,16.50
2022-08-19T22:41:36.116Z,16.50
2022-08-19T22:44:09.351Z,16.60
2022-08-19T22:46:42.043Z,16.50
2022-08-19T22:49:13.574Z,16.50
2022-08-19T22:52:02.586Z,16.40
2022-08-19T22:54:34.481Z,16.50
2022-08-19T22:57:06.255Z,16.50
2022-08-19T22:59:38.183Z,16.40
2022-08-19T23:02:11.879Z,16.40
2022-08-19T23:04:43.170Z,16.40
2022-08-19T23:07:14.531Z,16.40
2022-08-19T23:09:46.390Z,16.40
2022-08-19T23:12:20.765Z,16.30
2022-08-19T23:14:52.048Z,16.40
2022-08-19T23:17:23.334Z,16.40
2022-08-19T23:19:55.130Z,16.40
2022-08-19T23:22:26.612Z,16.40
2022-08-19T23:24:59.580Z,16.40
2022-08-19T23:27:48.590Z,16.30
2022-08-19T23:30:26.505Z,16.30
2022-08-19T23:33:00.382Z,16.30
2022-08-19T23:35:36.253Z,16.30
2022-08-19T23:38:08.440Z,16.40
2022-08-19T23:40:41.056Z,16.40
2022-08-19T23:43:20.396Z,16.40
2022-08-19T23:45:51.201Z,16.40
2022-08-19T23:48:22.561Z,16.40
2022-08-19T23:50:54.319Z,16.40
2022-08-19T23:53:25.860Z,16.40
2022-08-19T23:55:57.813Z,16.40
2022-08-19T23:58:30.160Z,16.40
